createdAt,value
2018-04-24T00:00:34.060Z,9.80
2018-04-24T00:03:01.529Z,8.80
2018-04-24T00:05:29.017Z,8.50
2018-04-24T00:07:56.510Z,8.80
2018-04-24T00:10:23.982Z,8.23
2018-04-24T00:12:51.503Z,8.70
2018-04-24T00:15:18.981Z,9.77
2018-04-24T00:17:46.496Z,10.07
2018-04-24T00:20:14.737Z,8.70
2018-04-24T00:22:42.218Z,10.50
2018-04-24T00:25:09.698Z,10.10
2018-04-24T00:27:37.943Z,10.17
2018-04-24T00:30:05.414Z,10.43
2018-04-24T00:32:32.891Z,10.40
2018-04-24T00:35:01.113Z,9.70
2018-04-24T00:37:28.594Z,9.80
2018-04-24T00:39:56.064Z,10.57
2018-04-24T00:42:23.549Z,10.20
2018-04-24T00:44:51.021Z,9.63
2018-04-24T00:47:18.510Z,11.30
2018-04-24T00:49:45.973Z,9.60
2018-04-24T00:52:13.448Z,9.50
2018-04-24T00:54:40.921Z,10.93
2018-04-24T00:57:09.179Z,10.13
2018-04-24T00:59:36.641Z,9.50
2018-04-24T01:02:04.125Z,8.87
2018-04-24T01:04:32.359Z,9.37
2018-04-24T01:06:59.837Z,9.47
2018-04-24T01:09:27.315Z,10.40
2018-04-24T01:11:55.567Z,9.77
2018-04-24T01:14:23.050Z,10.07
2018-04-24T01:16:51.294Z,10.23
2018-04-24T01:19:18.763Z,10.37
2018-04-24T01:21:46.247Z,10.07
2018-04-24T01:24:14.481Z,10.07
2018-04-24T01:26:41.962Z,10.40
2018-04-24T01:29:09.438Z,9.87
2018-04-24T01:31:37.685Z,10.83
2018-04-24T01:34:05.161Z,11.27
2018-04-24T01:36:32.641Z,10.33
2018-04-24T01:39:00.882Z,10.07
2018-04-24T01:41:30.010Z,11.00
2018-04-24T01:43:58.267Z,10.67
2018-04-24T01:46:25.750Z,10.10
2018-04-24T01:48:53.222Z,9.60
2018-04-24T01:51:20.709Z,10.40
2018-04-24T01:53:48.185Z,11.47
2018-04-24T01:56:15.664Z,10.23
2018-04-24T01:58:43.917Z,10.97
2018-04-24T02:01:11.413Z,10.03
2018-04-24T02:03:39.642Z,11.10
2018-04-24T02:06:07.115Z,11.27
2018-04-24T02:08:34.593Z,11.77
2018-04-24T02:11:02.835Z,11.77
2018-04-24T02:13:30.329Z,10.67
2018-04-24T02:15:58.565Z,10.90
2018-04-24T02:18:26.054Z,9.10
2018-04-24T02:20:53.518Z,9.80
2018-04-24T02:23:20.997Z,10.13
2018-04-24T02:25:49.247Z,10.30
2018-04-24T02:28:16.722Z,10.30
2018-04-24T02:30:44.972Z,10.40
2018-04-24T02:33:12.441Z,9.67
2018-04-24T02:35:40.702Z,10.40
2018-04-24T02:38:08.169Z,10.63
2018-04-24T02:40:35.648Z,11.80
2018-04-24T02:43:03.881Z,12.10
2018-04-24T02:45:31.373Z,10.97
2018-04-24T02:47:58.856Z,12.80
2018-04-24T02:50:26.326Z,12.30
2018-04-24T02:52:53.801Z,12.20
2018-04-24T02:55:21.268Z,13.27
2018-04-24T02:57:48.757Z,13.53
2018-04-24T03:00:16.221Z,12.70
2018-04-24T03:02:43.702Z,12.70
2018-04-24T03:05:11.930Z,12.47
2018-04-24T03:07:39.410Z,12.00
2018-04-24T03:10:06.892Z,10.87
2018-04-24T03:12:35.120Z,9.93
2018-04-24T03:15:02.582Z,10.67
2018-04-24T03:17:30.060Z,13.50
2018-04-24T03:19:57.543Z,11.40
2018-04-24T03:22:25.795Z,10.60
2018-04-24T03:24:53.274Z,12.40
2018-04-24T03:27:21.527Z,11.23
2018-04-24T03:29:49.010Z,11.00
2018-04-24T03:32:17.249Z,12.07
2018-04-24T03:34:44.731Z,12.17
2018-04-24T03:37:12.196Z,11.80
2018-04-24T03:39:40.443Z,12.30
2018-04-24T03:42:07.930Z,11.67
2018-04-24T03:44:36.164Z,11.63
2018-04-24T03:47:04.433Z,12.43
2018-04-24T03:49:31.912Z,13.17
2018-04-24T03:52:00.149Z,14.10
2018-04-24T03:54:27.621Z,14.77
2018-04-24T03:56:55.096Z,14.37
2018-04-24T03:59:22.586Z,15.80
2018-04-24T04:01:50.831Z,20.73
2018-04-24T04:04:18.318Z,26.20
2018-04-24T04:06:45.797Z,27.77
2018-04-24T04:09:14.138Z,24.27
2018-04-24T04:11:42.313Z,26.73
2018-04-24T04:14:09.784Z,26.40
2018-04-24T04:16:37.257Z,23.07
2018-04-24T04:19:17.313Z,22.60
2018-04-24T04:21:57.526Z,21.80
2018-04-24T04:24:37.833Z,20.53
2018-04-24T04:27:06.077Z,20.03
2018-04-24T04:29:34.726Z,17.57
2018-04-24T04:32:02.213Z,17.47
2018-04-24T04:34:29.686Z,18.00
2018-04-24T04:36:57.213Z,19.00
2018-04-24T04:39:24.683Z,16.80
2018-04-24T04:41:52.152Z,18.70
2018-04-24T04:44:19.618Z,18.07
2018-04-24T04:46:47.101Z,16.90
2018-04-24T04:49:15.350Z,16.53
2018-04-24T04:51:42.837Z,16.53
2018-04-24T04:54:11.082Z,16.97
2018-04-24T04:56:38.555Z,16.97
2018-04-24T04:59:06.032Z,13.43
2018-04-24T05:01:34.278Z,12.27
2018-04-24T05:04:01.746Z,10.00
2018-04-24T05:06:29.221Z,11.00
2018-04-24T05:08:57.478Z,10.83
2018-04-24T05:11:24.945Z,9.17
2018-04-24T05:13:52.409Z,7.80
2018-04-24T05:16:19.900Z,9.43
2018-04-24T05:18:47.393Z,9.80
2018-04-24T05:21:14.860Z,9.80
2018-04-24T05:23:42.342Z,9.63
2018-04-24T05:26:09.799Z,9.43
2018-04-24T05:28:37.278Z,9.17
2018-04-24T05:31:05.505Z,8.87
2018-04-24T05:33:32.977Z,9.00
2018-04-24T05:36:00.456Z,10.00
2018-04-24T05:38:27.944Z,8.30
2018-04-24T05:40:55.422Z,9.57
2018-04-24T05:43:22.901Z,11.00
2018-04-24T05:45:50.374Z,9.93
2018-04-24T05:48:17.853Z,11.20
2018-04-24T05:50:46.090Z,11.90
2018-04-24T05:53:13.569Z,11.47
2018-04-24T05:55:41.041Z,11.40
2018-04-24T05:58:08.525Z,12.80
2018-04-24T06:00:36.004Z,11.83
2018-04-24T06:03:03.547Z,12.00
2018-04-24T06:05:30.957Z,12.70
2018-04-24T06:07:58.425Z,13.17
2018-04-24T06:10:25.903Z,13.50
2018-04-24T06:12:54.141Z,12.23
2018-04-24T06:15:21.604Z,12.97
2018-04-24T06:17:49.092Z,12.87
2018-04-24T06:20:17.322Z,14.93
2018-04-24T06:22:44.799Z,10.80
2018-04-24T06:25:12.282Z,10.53
2018-04-24T06:27:39.750Z,12.57
2018-04-24T06:30:07.981Z,9.80
2018-04-24T06:32:35.460Z,10.30
2018-04-24T06:35:03.951Z,9.67
2018-04-24T06:37:31.439Z,8.10
2018-04-24T06:39:58.906Z,6.87
2018-04-24T06:42:26.378Z,7.17
2018-04-24T06:44:53.849Z,7.43
2018-04-24T06:47:21.318Z,7.40
2018-04-24T06:49:48.792Z,8.60
2018-04-24T06:52:16.264Z,7.57
2018-04-24T06:54:45.233Z,7.07
2018-04-24T06:57:12.715Z,7.27
2018-04-24T06:59:40.196Z,8.00
2018-04-24T07:02:08.441Z,8.20
2018-04-24T07:04:35.905Z,7.93
2018-04-24T07:07:03.372Z,8.50
2018-04-24T07:09:31.605Z,7.83
2018-04-24T07:11:59.072Z,8.23
2018-04-24T07:14:26.545Z,7.40
2018-04-24T07:16:54.072Z,6.33
2018-04-24T07:19:21.473Z,7.87
2018-04-24T07:21:48.932Z,6.50
2018-04-24T07:24:17.189Z,6.67
2018-04-24T07:26:44.665Z,5.50
2018-04-24T07:29:12.148Z,7.27
2018-04-24T07:31:40.394Z,6.10
2018-04-24T07:34:07.922Z,7.20
2018-04-24T07:36:35.379Z,6.40
2018-04-24T07:39:02.856Z,6.30
2018-04-24T07:41:30.321Z,5.10
2018-04-24T07:43:57.790Z,5.20
2018-04-24T07:46:25.268Z,5.07
2018-04-24T07:48:53.510Z,4.47
2018-04-24T07:51:20.969Z,4.40
2018-04-24T07:53:48.446Z,4.67
2018-04-24T07:56:15.955Z,4.90
2018-04-24T07:58:43.452Z,5.00
2018-04-24T08:01:10.906Z,5.20
2018-04-24T08:03:38.408Z,4.83
2018-04-24T08:06:06.639Z,5.17
2018-04-24T08:08:34.890Z,4.50
2018-04-24T08:11:02.353Z,4.77
2018-04-24T08:13:29.832Z,4.80
2018-04-24T08:15:57.281Z,3.87
2018-04-24T08:18:24.758Z,4.40
2018-04-24T08:20:52.321Z,3.67
2018-04-24T08:23:19.781Z,4.60
2018-04-24T08:25:47.251Z,3.77
2018-04-24T08:28:14.721Z,3.90
2018-04-24T08:30:42.973Z,4.37
2018-04-24T08:33:10.446Z,3.67
2018-04-24T08:35:37.906Z,3.20
2018-04-24T08:38:05.383Z,4.03
2018-04-24T08:40:33.600Z,4.00
2018-04-24T08:43:01.080Z,4.23
2018-04-24T08:45:28.545Z,3.20
2018-04-24T08:47:56.032Z,3.20
2018-04-24T08:50:23.472Z,3.63
2018-04-24T08:52:50.929Z,3.30
2018-04-24T08:55:18.419Z,3.80
2018-04-24T08:57:45.886Z,4.33
2018-04-24T09:00:13.359Z,3.57
2018-04-24T09:02:40.827Z,4.30
2018-04-24T09:05:08.666Z,3.97
2018-04-24T09:07:36.122Z,4.73
2018-04-24T09:10:03.593Z,3.80
2018-04-24T09:12:31.049Z,4.20
2018-04-24T09:14:58.538Z,3.87
2018-04-24T09:17:26.017Z,4.07
2018-04-24T09:19:53.486Z,4.67
2018-04-24T09:22:21.719Z,3.70
2018-04-24T09:24:49.192Z,3.77
2018-04-24T09:27:16.743Z,4.03
2018-04-24T09:29:49.910Z,3.40
2018-04-24T09:32:17.379Z,4.40
2018-04-24T09:34:44.849Z,4.17
2018-04-24T09:37:12.312Z,3.40
2018-04-24T09:39:39.789Z,3.00
2018-04-24T09:42:07.251Z,3.10
2018-04-24T09:44:34.736Z,2.73
2018-04-24T09:47:02.961Z,3.07
2018-04-24T09:49:30.446Z,3.60
2018-04-24T09:51:57.918Z,3.70
2018-04-24T09:54:26.149Z,3.50
2018-04-24T09:56:53.714Z,3.90
2018-04-24T09:59:21.106Z,3.77
2018-04-24T10:01:54.711Z,4.23
2018-04-24T10:04:22.190Z,3.27
2018-04-24T10:06:50.417Z,3.17
2018-04-24T10:09:17.894Z,3.27
2018-04-24T10:11:45.362Z,3.67
2018-04-24T10:14:12.833Z,4.10
2018-04-24T10:16:41.061Z,4.77
2018-04-24T10:19:08.543Z,4.37
2018-04-24T10:21:36.046Z,4.47
2018-04-24T10:24:03.513Z,3.60
2018-04-24T10:26:31.002Z,3.40
2018-04-24T10:28:58.497Z,4.43
2018-04-24T10:31:26.729Z,4.03
2018-04-24T10:33:54.390Z,4.27
2018-04-24T10:36:21.877Z,4.27
2018-04-24T10:38:49.350Z,4.17
2018-04-24T10:41:16.806Z,4.70
2018-04-24T10:43:44.318Z,5.00
2018-04-24T10:46:11.774Z,5.13
2018-04-24T10:48:39.266Z,4.60
2018-04-24T10:51:06.730Z,4.20
2018-04-24T10:53:34.188Z,4.23
2018-04-24T10:56:01.718Z,4.50
2018-04-24T10:58:29.138Z,3.97
2018-04-24T11:00:57.387Z,4.33
2018-04-24T11:03:24.845Z,5.27
2018-04-24T11:05:52.334Z,4.70
2018-04-24T11:08:20.562Z,4.63
2018-04-24T11:10:48.909Z,4.23
2018-04-24T11:13:16.428Z,4.13
2018-04-24T11:15:43.907Z,4.03
2018-04-24T11:18:11.380Z,4.00
2018-04-24T11:20:38.876Z,4.47
2018-04-24T11:23:07.146Z,4.23
2018-04-24T11:25:34.615Z,4.60
2018-04-24T11:28:02.087Z,4.83
2018-04-24T11:30:29.560Z,4.20
2018-04-24T11:32:57.020Z,4.13
2018-04-24T11:35:25.267Z,3.73
2018-04-24T11:37:52.738Z,4.93
2018-04-24T11:40:20.219Z,4.67
2018-04-24T11:42:48.440Z,4.20
2018-04-24T11:45:15.989Z,3.57
2018-04-24T11:47:44.184Z,3.43
2018-04-24T11:50:11.681Z,3.70
2018-04-24T11:52:39.377Z,3.73
2018-04-24T11:55:06.838Z,3.20
2018-04-24T11:57:34.303Z,3.40
2018-04-24T12:00:01.851Z,4.20
2018-04-24T12:02:29.374Z,3.60
2018-04-24T12:04:56.840Z,4.20
2018-04-24T12:07:25.079Z,3.97
2018-04-24T12:09:52.599Z,3.83
2018-04-24T12:12:20.817Z,4.30
2018-04-24T12:14:48.306Z,3.87
2018-04-24T12:17:16.545Z,4.30
2018-04-24T12:19:44.017Z,3.80
2018-04-24T12:22:11.507Z,4.17
2018-04-24T12:24:38.972Z,4.40
2018-04-24T12:27:07.193Z,4.00
2018-04-24T12:29:34.670Z,3.80
2018-04-24T12:32:02.134Z,3.53
2018-04-24T12:34:29.611Z,3.80
2018-04-24T12:36:57.114Z,3.87
2018-04-24T12:39:24.582Z,4.10
2018-04-24T12:41:52.065Z,4.20
2018-04-24T12:44:19.546Z,3.57
2018-04-24T12:46:47.009Z,3.90
2018-04-24T12:49:14.477Z,4.07
2018-04-24T12:51:42.788Z,3.50
2018-04-24T12:54:10.186Z,4.20
2018-04-24T12:56:37.673Z,3.90
2018-04-24T12:59:05.933Z,3.50
2018-04-24T13:01:33.383Z,4.03
2018-04-24T13:04:00.840Z,3.97
2018-04-24T13:06:28.315Z,3.83
2018-04-24T13:08:56.227Z,3.37
2018-04-24T13:11:23.711Z,3.83
2018-04-24T13:13:51.181Z,3.90
2018-04-24T13:16:18.646Z,3.70
2018-04-24T13:18:46.106Z,3.47
2018-04-24T13:21:13.589Z,3.73
2018-04-24T13:23:47.414Z,3.70
2018-04-24T13:26:15.045Z,3.60
2018-04-24T13:28:42.514Z,3.80
2018-04-24T13:31:10.814Z,3.87
2018-04-24T13:33:39.018Z,4.00
2018-04-24T13:38:40.324Z,3.50
2018-04-24T13:41:08.580Z,3.47
2018-04-24T13:43:36.035Z,4.20
2018-04-24T13:46:04.270Z,4.60
2018-04-24T13:48:31.744Z,3.70
2018-04-24T13:50:59.218Z,3.90
2018-04-24T13:53:26.678Z,4.20
2018-04-24T13:55:54.153Z,3.63
2018-04-24T13:58:21.622Z,4.20
2018-04-24T14:00:49.131Z,3.43
2018-04-24T14:03:16.604Z,3.70
2018-04-24T14:05:44.081Z,5.20
2018-04-24T14:08:11.562Z,4.40
2018-04-24T14:10:39.055Z,4.60
2018-04-24T14:13:06.528Z,4.80
2018-04-24T14:15:34.016Z,4.63
2018-04-24T14:18:01.534Z,4.77
2018-04-24T14:20:29.040Z,5.60
2018-04-24T14:22:56.498Z,4.83
2018-04-24T14:25:23.969Z,5.93
2018-04-24T14:27:51.450Z,6.50
2018-04-24T14:30:19.674Z,5.40
2018-04-24T14:32:47.156Z,6.10
2018-04-24T14:35:14.645Z,6.00
2018-04-24T14:37:42.891Z,6.20
2018-04-24T14:40:10.406Z,6.63
2018-04-24T14:42:37.879Z,6.57
2018-04-24T14:45:05.369Z,6.13
2018-04-24T14:47:32.932Z,5.70
2018-04-24T14:50:00.343Z,7.07
2018-04-24T14:52:27.807Z,5.80
2018-04-24T14:54:55.270Z,7.13
2018-04-24T14:57:22.746Z,6.30
2018-04-24T14:59:50.198Z,7.97
2018-04-24T15:02:17.677Z,8.83
2018-04-24T15:04:46.085Z,8.20
2018-04-24T15:07:14.401Z,8.57
2018-04-24T15:09:41.793Z,9.57
2018-04-24T15:12:09.299Z,9.70
2018-04-24T15:14:36.756Z,9.73
2018-04-24T15:17:04.254Z,9.50
2018-04-24T15:19:31.729Z,10.70
2018-04-24T15:21:59.200Z,9.77
2018-04-24T15:24:27.444Z,9.83
2018-04-24T15:26:54.917Z,10.47
2018-04-24T15:29:22.427Z,9.87
2018-04-24T15:31:49.903Z,10.23
2018-04-24T15:34:17.374Z,9.40
2018-04-24T15:36:44.878Z,9.63
2018-04-24T15:39:13.129Z,9.43
2018-04-24T15:41:40.630Z,9.23
2018-04-24T15:44:08.102Z,9.10
2018-04-24T15:46:35.577Z,10.10
2018-04-24T15:49:03.076Z,9.83
2018-04-24T15:51:30.552Z,10.20
2018-04-24T15:53:58.818Z,9.63
2018-04-24T15:56:26.297Z,10.83
2018-04-24T15:58:54.563Z,10.60
2018-04-24T16:01:22.815Z,9.77
2018-04-24T16:03:50.634Z,10.70
2018-04-24T16:06:18.119Z,10.50
2018-04-24T16:08:45.584Z,10.27
2018-04-24T16:11:13.120Z,9.13
2018-04-24T16:13:40.600Z,9.90
2018-04-24T16:16:08.097Z,9.80
2018-04-24T16:18:36.334Z,10.40
2018-04-24T16:21:03.831Z,10.10
2018-04-24T16:23:32.854Z,10.10
2018-04-24T16:26:00.371Z,9.63
2018-04-24T16:28:27.838Z,9.97
2018-04-24T16:30:55.313Z,10.03
2018-04-24T16:33:23.556Z,10.37
2018-04-24T16:35:51.111Z,11.40
2018-04-24T16:38:18.739Z,12.10
2018-04-24T16:40:53.799Z,10.00
2018-04-24T16:43:22.108Z,12.90
2018-04-24T16:45:50.519Z,12.30
2018-04-24T16:48:18.475Z,12.17
2018-04-24T16:50:46.758Z,12.50
2018-04-24T16:53:15.036Z,13.07
2018-04-24T16:55:43.398Z,13.37
2018-04-24T16:58:11.720Z,14.20
2018-04-24T17:00:39.210Z,14.70
2018-04-24T17:03:06.900Z,14.23
2018-04-24T17:05:35.192Z,14.97
2018-04-24T17:08:04.737Z,14.60
2018-04-24T17:10:32.354Z,14.57
2018-04-24T17:13:00.661Z,16.17
2018-04-24T17:15:28.499Z,16.30
2018-04-24T17:17:57.177Z,15.60
2018-04-24T17:20:24.692Z,17.30
2018-04-24T17:22:52.261Z,16.80
2018-04-24T17:25:20.636Z,16.27
2018-04-24T17:27:48.168Z,17.10
2018-04-24T17:30:15.694Z,16.60
2018-04-24T17:32:43.273Z,18.13
2018-04-24T17:35:10.749Z,17.17
2018-04-24T17:37:38.259Z,17.47
2018-04-24T17:40:05.733Z,18.10
2018-04-24T17:42:33.245Z,18.27
2018-04-24T17:45:00.726Z,16.70
2018-04-24T17:47:28.207Z,16.43
2018-04-24T17:49:55.760Z,16.87
2018-04-24T17:52:23.179Z,16.90
2018-04-24T17:54:50.652Z,17.73
2018-04-24T17:57:18.151Z,17.20
2018-04-24T17:59:45.622Z,17.13
2018-04-24T18:02:14.672Z,19.13
2018-04-24T18:04:42.141Z,16.67
2018-04-24T18:07:09.633Z,17.73
2018-04-24T18:09:37.880Z,17.90
2018-04-24T18:12:05.361Z,17.30
2018-04-24T18:14:33.608Z,18.30
2018-04-24T18:17:01.091Z,18.20
2018-04-24T18:19:28.573Z,18.23
2018-04-24T18:21:56.059Z,18.60
2018-04-24T18:24:23.540Z,19.20
2018-04-24T18:26:51.017Z,16.70
2018-04-24T18:29:18.486Z,17.40
2018-04-24T18:31:46.730Z,18.20
2018-04-24T18:34:14.205Z,19.90
2018-04-24T18:36:41.675Z,17.43
2018-04-24T18:39:09.155Z,17.40
2018-04-24T18:41:37.398Z,18.93
2018-04-24T18:44:05.670Z,17.20
2018-04-24T18:46:33.154Z,16.77
2018-04-24T18:49:01.394Z,18.93
2018-04-24T18:51:28.869Z,19.50
2018-04-24T18:53:56.336Z,19.60
2018-04-24T18:56:23.828Z,18.97
2018-04-24T18:58:51.303Z,20.50
2018-04-24T19:01:18.801Z,22.70
2018-04-24T19:03:46.273Z,57.10
2018-04-24T19:06:13.762Z,46.93
2018-04-24T19:08:41.260Z,43.57
2018-04-24T19:11:08.732Z,26.37
2018-04-24T19:13:36.196Z,22.40
2018-04-24T19:16:04.462Z,22.00
2018-04-24T19:18:37.595Z,23.17
2018-04-24T19:21:05.099Z,22.60
2018-04-24T19:23:32.591Z,22.33
2018-04-24T19:26:00.093Z,21.87
2018-04-24T19:28:27.569Z,22.77
2018-04-24T19:30:55.055Z,23.73
2018-04-24T19:33:22.537Z,21.63
2018-04-24T19:35:50.773Z,24.60
2018-04-24T19:38:18.263Z,23.37
2018-04-24T19:40:51.402Z,23.17
2018-04-24T19:43:18.880Z,23.57
2018-04-24T19:45:46.346Z,23.07
2018-04-24T19:48:19.480Z,25.40
2018-04-24T19:50:47.737Z,24.73
2018-04-24T19:53:15.228Z,24.10
2018-04-24T19:55:43.529Z,23.77
2018-04-24T19:58:11.011Z,23.10
2018-04-24T20:00:38.508Z,24.00
2018-04-24T20:03:06.799Z,22.67
2018-04-24T20:05:35.053Z,23.00
2018-04-24T20:08:03.325Z,23.17
2018-04-24T20:10:30.823Z,22.60
2018-04-24T20:12:59.059Z,24.10
2018-04-24T20:15:26.522Z,24.57
2018-04-24T20:17:54.791Z,24.57
2018-04-24T20:20:22.282Z,25.23
2018-04-24T20:22:53.473Z,24.47
2018-04-24T20:25:20.941Z,24.03
2018-04-24T20:27:48.459Z,26.23
2018-04-24T20:30:15.976Z,24.97
2018-04-24T20:32:43.508Z,24.60
2018-04-24T20:35:11.002Z,24.93
2018-04-24T20:37:38.474Z,23.63
2018-04-24T20:40:06.701Z,24.00
2018-04-24T20:42:34.249Z,26.00
2018-04-24T20:45:01.761Z,24.67
2018-04-24T20:47:30.066Z,23.83
2018-04-24T20:49:58.301Z,24.10
2018-04-24T20:52:25.786Z,25.83
2018-04-24T20:54:54.042Z,23.13
2018-04-24T20:57:21.516Z,24.33
2018-04-24T20:59:49.753Z,25.33
2018-04-24T21:02:17.242Z,25.20
2018-04-24T21:04:45.488Z,24.30
2018-04-24T21:07:12.992Z,24.73
2018-04-24T21:09:41.268Z,26.20
2018-04-24T21:12:09.529Z,24.40
2018-04-24T21:14:37.035Z,23.90
2018-04-24T21:17:04.513Z,24.87
2018-04-24T21:19:31.981Z,25.17
2018-04-24T21:22:05.318Z,25.50
2018-04-24T21:24:33.552Z,25.37
2018-04-24T21:27:01.309Z,25.60
2018-04-24T21:29:28.808Z,26.30
2018-04-24T21:31:57.034Z,26.27
2018-04-24T21:34:24.517Z,25.50
2018-04-24T21:36:51.977Z,26.23
2018-04-24T21:39:19.452Z,25.70
2018-04-24T21:41:46.947Z,23.57
2018-04-24T21:44:14.433Z,24.70
2018-04-24T21:46:41.898Z,23.20
2018-04-24T21:49:09.383Z,23.10
2018-04-24T21:51:36.859Z,23.17
2018-04-24T21:54:05.092Z,24.63
2018-04-24T21:56:32.566Z,22.70
2018-04-24T21:59:00.033Z,24.00
2018-04-24T22:01:27.504Z,24.43
2018-04-24T22:03:55.742Z,24.50
2018-04-24T22:06:23.217Z,21.87
2018-04-24T22:08:50.693Z,22.47
2018-04-24T22:11:18.931Z,25.23
2018-04-24T22:13:46.408Z,22.40
2018-04-24T22:16:14.137Z,23.03
2018-04-24T22:18:41.626Z,23.50
2018-04-24T22:21:09.160Z,24.07
2018-04-24T22:23:36.573Z,22.90
2018-04-24T22:26:04.827Z,24.30
2018-04-24T22:28:32.314Z,22.50
2018-04-24T22:31:00.544Z,21.83
2018-04-24T22:33:28.061Z,23.23
2018-04-24T22:35:56.288Z,23.60
2018-04-24T22:38:24.901Z,23.57
2018-04-24T22:40:52.374Z,24.70
2018-04-24T22:43:20.630Z,25.60
2018-04-24T22:45:48.099Z,25.97
2018-04-24T22:48:16.344Z,23.30
2018-04-24T22:50:43.819Z,23.30
2018-04-24T22:53:11.299Z,25.80
2018-04-24T22:55:39.536Z,25.60
2018-04-24T22:58:07.014Z,25.20
2018-04-24T23:00:34.485Z,24.73
2018-04-24T23:03:02.737Z,26.67
2018-04-24T23:05:30.207Z,26.33
2018-04-24T23:07:57.717Z,27.00
2018-04-24T23:10:37.039Z,25.30
2018-04-24T23:13:16.369Z,25.07
2018-04-24T23:15:55.598Z,26.50
2018-04-24T23:18:35.805Z,26.07
2018-04-24T23:21:02.789Z,26.00
2018-04-24T23:23:31.035Z,27.00
2018-04-24T23:25:58.517Z,26.57
2018-04-24T23:28:26.001Z,28.87
2018-04-24T23:30:53.473Z,27.37
2018-04-24T23:33:20.979Z,27.50
2018-04-24T23:35:48.441Z,29.50
2018-04-24T23:38:15.933Z,26.37
2018-04-24T23:40:44.165Z,27.23
2018-04-24T23:43:11.644Z,27.73
2018-04-24T23:45:39.112Z,30.47
2018-04-24T23:48:07.382Z,28.30
2018-04-24T23:50:34.859Z,26.83
2018-04-24T23:53:03.123Z,29.40
2018-04-24T23:55:30.602Z,32.80
2018-04-24T23:57:58.842Z,32.20
